createdAt,value
2018-01-14T00:00:23.074Z,50.30
2018-01-14T00:01:23.098Z,47.10
2018-01-14T00:02:23.123Z,50.00
2018-01-14T00:03:23.158Z,49.60
2018-01-14T00:04:23.170Z,50.40
2018-01-14T00:05:23.209Z,47.60
2018-01-14T00:06:23.219Z,48.30
2018-01-14T00:07:23.243Z,51.90
2018-01-14T00:08:23.267Z,43.90
2018-01-14T00:09:23.290Z,50.40
2018-01-14T00:10:23.316Z,51.80
2018-01-14T00:11:23.340Z,43.40
2018-01-14T00:12:23.363Z,43.70
2018-01-14T00:13:23.400Z,49.10
2018-01-14T00:14:23.411Z,47.80
2018-01-14T00:15:23.437Z,51.20
2018-01-14T00:16:23.463Z,45.80
2018-01-14T00:17:23.484Z,46.00
2018-01-14T00:18:23.508Z,47.20
2018-01-14T00:19:23.534Z,52.20
2018-01-14T00:20:23.555Z,46.20
2018-01-14T00:21:23.581Z,48.30
2018-01-14T00:22:23.607Z,49.10
2018-01-14T00:23:23.647Z,44.90
2018-01-14T00:24:23.653Z,46.30
2018-01-14T00:25:23.678Z,51.00
2018-01-14T00:26:23.702Z,44.70
2018-01-14T00:27:23.727Z,48.50
2018-01-14T00:28:23.750Z,51.30
2018-01-14T00:29:23.774Z,45.60
2018-01-14T00:30:23.798Z,44.90
2018-01-14T00:31:23.823Z,52.80
2018-01-14T00:32:23.847Z,46.00
2018-01-14T00:33:23.873Z,51.10
2018-01-14T00:34:23.899Z,45.50
2018-01-14T00:35:23.921Z,45.70
2018-01-14T00:36:23.944Z,51.70
2018-01-14T00:37:23.968Z,50.30
2018-01-14T00:38:23.996Z,43.50
2018-01-14T00:39:24.017Z,43.40
2018-01-14T00:40:24.040Z,48.70
2018-01-14T00:41:24.075Z,49.80
2018-01-14T00:42:24.089Z,46.00
2018-01-14T00:43:24.114Z,47.00
2018-01-14T00:44:24.139Z,50.50
2018-01-14T00:45:24.313Z,48.20
2018-01-14T00:46:24.186Z,46.10
2018-01-14T00:47:24.211Z,42.30
2018-01-14T00:48:24.232Z,49.50
2018-01-14T00:49:24.258Z,48.30
2018-01-14T00:50:24.286Z,51.00
2018-01-14T00:51:24.313Z,45.60
2018-01-14T00:52:24.331Z,50.90
2018-01-14T00:53:24.353Z,50.00
2018-01-14T00:54:24.380Z,49.30
2018-01-14T00:55:24.403Z,46.30
2018-01-14T00:56:24.427Z,46.60
2018-01-14T00:57:24.451Z,44.50
2018-01-14T00:58:24.476Z,48.80
2018-01-14T00:59:24.499Z,50.30
2018-01-14T01:00:24.523Z,52.40
2018-01-14T01:01:24.547Z,46.30
2018-01-14T01:02:24.571Z,42.90
2018-01-14T01:03:24.596Z,45.70
2018-01-14T01:04:24.618Z,45.50
2018-01-14T01:05:24.645Z,45.40
2018-01-14T01:06:24.667Z,43.90
2018-01-14T01:07:24.692Z,45.90
2018-01-14T01:08:24.714Z,45.80
2018-01-14T01:09:24.739Z,49.20
2018-01-14T01:10:24.772Z,46.50
2018-01-14T01:11:24.787Z,48.60
2018-01-14T01:12:24.809Z,42.50
2018-01-14T01:13:24.835Z,54.30
2018-01-14T01:14:24.859Z,47.50
2018-01-14T01:15:24.883Z,47.90
2018-01-14T01:16:24.906Z,44.40
2018-01-14T01:17:24.930Z,43.10
2018-01-14T01:18:24.953Z,40.70
2018-01-14T01:19:24.978Z,42.80
2018-01-14T01:20:25.003Z,45.20
2018-01-14T01:21:25.026Z,43.10
2018-01-14T01:22:25.050Z,43.20
2018-01-14T01:23:25.074Z,42.30
2018-01-14T01:24:25.097Z,43.40
2018-01-14T01:25:25.130Z,43.30
2018-01-14T01:26:25.144Z,46.20
2018-01-14T01:27:25.169Z,49.10
2018-01-14T01:28:25.193Z,41.00
2018-01-14T01:29:25.219Z,47.50
2018-01-14T01:30:25.240Z,41.80
2018-01-14T01:31:25.265Z,46.40
2018-01-14T01:32:25.287Z,44.80
2018-01-14T01:33:25.311Z,42.70
2018-01-14T01:34:25.337Z,40.80
2018-01-14T01:35:25.360Z,46.60
2018-01-14T01:36:25.384Z,46.60
2018-01-14T01:37:25.408Z,44.80
2018-01-14T01:38:25.432Z,43.60
2018-01-14T01:39:25.455Z,48.50
2018-01-14T01:40:25.482Z,47.40
2018-01-14T01:41:25.503Z,49.20
2018-01-14T01:42:25.526Z,41.40
2018-01-14T01:43:25.552Z,40.90
2018-01-14T01:44:25.573Z,44.60
2018-01-14T01:45:25.599Z,46.60
2018-01-14T01:46:25.772Z,46.20
2018-01-14T01:47:25.647Z,45.00
2018-01-14T01:48:25.669Z,43.60
2018-01-14T01:49:25.694Z,42.70
2018-01-14T01:50:25.718Z,43.40
2018-01-14T01:51:25.742Z,43.30
2018-01-14T01:52:25.764Z,48.40
2018-01-14T01:53:25.789Z,46.90
2018-01-14T01:54:25.814Z,45.80
2018-01-14T01:55:25.836Z,45.40
2018-01-14T01:56:25.860Z,43.90
2018-01-14T01:57:25.934Z,44.60
2018-01-14T01:58:25.908Z,42.20
2018-01-14T01:59:25.932Z,43.70
2018-01-14T02:00:25.957Z,43.40
2018-01-14T02:01:25.979Z,46.50
2018-01-14T02:02:26.004Z,43.10
2018-01-14T02:03:26.026Z,47.60
2018-01-14T02:04:26.050Z,44.60
2018-01-14T02:05:26.074Z,43.10
2018-01-14T02:06:26.098Z,45.40
2018-01-14T02:07:26.122Z,44.70
2018-01-14T02:08:26.145Z,49.10
2018-01-14T02:09:26.170Z,43.40
2018-01-14T02:10:26.196Z,45.70
2018-01-14T02:11:26.217Z,44.80
2018-01-14T02:12:26.239Z,42.10
2018-01-14T02:13:26.264Z,45.20
2018-01-14T02:14:26.288Z,40.70
2018-01-14T02:15:26.311Z,41.80
2018-01-14T02:16:26.335Z,43.00
2018-01-14T02:17:26.362Z,45.00
2018-01-14T02:18:26.383Z,42.20
2018-01-14T02:19:26.406Z,43.50
2018-01-14T02:20:26.430Z,41.50
2018-01-14T02:21:26.454Z,40.90
2018-01-14T02:22:26.477Z,43.10
2018-01-14T02:23:26.501Z,47.10
2018-01-14T02:24:26.524Z,42.30
2018-01-14T02:25:26.548Z,43.90
2018-01-14T02:26:26.571Z,41.30
2018-01-14T02:27:26.598Z,47.30
2018-01-14T02:28:26.618Z,41.50
2018-01-14T02:29:26.643Z,41.50
2018-01-14T02:30:26.667Z,43.90
2018-01-14T02:31:26.693Z,42.00
2018-01-14T02:32:26.717Z,40.60
2018-01-14T02:33:26.736Z,42.40
2018-01-14T02:34:26.811Z,48.10
2018-01-14T02:35:26.786Z,40.40
2018-01-14T02:36:26.812Z,49.60
2018-01-14T02:37:26.836Z,41.30
2018-01-14T02:38:26.856Z,42.80
2018-01-14T02:39:26.880Z,42.20
2018-01-14T02:40:26.903Z,42.90
2018-01-14T02:41:26.926Z,41.20
2018-01-14T02:42:26.951Z,48.00
2018-01-14T02:43:26.974Z,45.90
2018-01-14T02:44:26.997Z,49.30
2018-01-14T02:45:27.024Z,41.90
2018-01-14T02:46:27.046Z,45.00
2018-01-14T02:47:27.068Z,43.90
2018-01-14T02:48:27.092Z,43.10
2018-01-14T02:49:27.115Z,48.00
2018-01-14T02:50:27.140Z,43.50
2018-01-14T02:51:27.163Z,38.10
2018-01-14T02:52:27.185Z,46.20
2018-01-14T02:53:27.209Z,46.80
2018-01-14T02:54:27.233Z,46.80
2018-01-14T02:55:27.264Z,40.50
2018-01-14T02:56:27.279Z,42.70
2018-01-14T02:57:27.303Z,44.10
2018-01-14T02:58:27.329Z,46.00
2018-01-14T02:59:27.350Z,45.40
2018-01-14T03:00:27.373Z,41.20
2018-01-14T03:01:27.397Z,39.20
2018-01-14T03:02:27.420Z,45.30
2018-01-14T03:03:27.444Z,45.20
2018-01-14T03:04:27.468Z,47.90
2018-01-14T03:05:27.492Z,47.20
2018-01-14T03:06:27.516Z,48.50
2018-01-14T03:07:27.539Z,49.50
2018-01-14T03:08:27.563Z,43.40
2018-01-14T03:09:27.585Z,46.60
2018-01-14T03:10:27.609Z,44.30
2018-01-14T03:11:27.633Z,40.50
2018-01-14T03:12:27.655Z,45.30
2018-01-14T03:13:27.679Z,43.20
2018-01-14T03:14:27.704Z,49.30
2018-01-14T03:15:27.726Z,41.50
2018-01-14T03:16:27.747Z,46.50
2018-01-14T03:17:27.772Z,49.00
2018-01-14T03:18:27.795Z,42.50
2018-01-14T03:19:27.819Z,47.70
2018-01-14T03:20:27.841Z,47.10
2018-01-14T03:21:27.866Z,46.20
2018-01-14T03:22:27.891Z,47.30
2018-01-14T03:23:27.913Z,38.90
2018-01-14T03:24:27.935Z,43.70
2018-01-14T03:25:27.959Z,43.00
2018-01-14T03:26:27.983Z,45.60
2018-01-14T03:27:28.006Z,45.40
2018-01-14T03:28:28.029Z,42.00
2018-01-14T03:29:28.051Z,49.30
2018-01-14T03:30:28.077Z,49.70
2018-01-14T03:31:28.100Z,44.60
2018-01-14T03:32:28.123Z,43.40
2018-01-14T03:33:28.145Z,41.10
2018-01-14T03:34:28.169Z,41.80
2018-01-14T03:35:28.192Z,46.10
2018-01-14T03:36:28.215Z,45.90
2018-01-14T03:37:28.239Z,44.80
2018-01-14T03:38:28.262Z,49.50
2018-01-14T03:39:28.286Z,46.60
2018-01-14T03:40:28.308Z,44.30
2018-01-14T03:41:28.332Z,42.70
2018-01-14T03:42:28.354Z,48.40
2018-01-14T03:43:28.379Z,53.60
2018-01-14T03:44:28.401Z,42.50
2018-01-14T03:45:28.425Z,51.60
2018-01-14T03:46:28.448Z,45.50
2018-01-14T03:47:28.472Z,48.30
2018-01-14T03:48:28.495Z,40.90
2018-01-14T03:49:28.517Z,44.10
2018-01-14T03:50:28.541Z,48.40
2018-01-14T03:51:28.564Z,50.50
2018-01-14T03:52:28.587Z,47.90
2018-01-14T03:53:28.611Z,45.50
2018-01-14T03:54:28.636Z,47.80
2018-01-14T03:55:28.658Z,49.50
2018-01-14T03:56:28.680Z,50.00
2018-01-14T03:57:28.704Z,47.20
2018-01-14T03:58:28.727Z,44.00
2018-01-14T03:59:28.751Z,45.20
2018-01-14T04:00:28.773Z,46.10
2018-01-14T04:01:28.797Z,46.00
2018-01-14T04:02:28.820Z,46.00
2018-01-14T04:03:28.844Z,45.80
2018-01-14T04:04:28.866Z,45.80
2018-01-14T04:05:28.888Z,41.10
2018-01-14T04:06:28.914Z,45.90
2018-01-14T04:07:28.937Z,47.90
2018-01-14T04:08:28.958Z,48.10
2018-01-14T04:09:28.988Z,44.00
2018-01-14T04:10:29.005Z,49.00
2018-01-14T04:11:29.030Z,47.60
2018-01-14T04:12:29.052Z,44.80
2018-01-14T04:13:29.075Z,44.40
2018-01-14T04:14:29.099Z,45.60
2018-01-14T04:15:29.122Z,45.60
2018-01-14T04:16:29.145Z,49.00
2018-01-14T04:17:29.166Z,54.90
2018-01-14T04:18:29.190Z,46.70
2018-01-14T04:19:29.214Z,50.10
2018-01-14T04:20:29.237Z,44.60
2018-01-14T04:21:29.261Z,53.60
2018-01-14T04:22:29.284Z,46.00
2018-01-14T04:23:29.308Z,49.00
2018-01-14T04:24:29.330Z,48.10
2018-01-14T04:25:29.354Z,44.20
2018-01-14T04:26:29.377Z,41.80
2018-01-14T04:27:29.400Z,45.60
2018-01-14T04:28:29.423Z,48.40
2018-01-14T04:29:29.446Z,46.00
2018-01-14T04:30:29.470Z,47.60
2018-01-14T04:31:29.493Z,42.50
2018-01-14T04:32:29.516Z,44.40
2018-01-14T04:33:29.539Z,40.40
2018-01-14T04:34:29.563Z,45.50
2018-01-14T04:35:29.586Z,45.40
2018-01-14T04:36:29.609Z,44.40
2018-01-14T04:37:29.634Z,42.30
2018-01-14T04:38:29.656Z,45.50
2018-01-14T04:39:29.679Z,43.90
2018-01-14T04:40:29.700Z,44.30
2018-01-14T04:41:29.725Z,45.50
2018-01-14T04:42:29.748Z,45.30
2018-01-14T04:43:29.772Z,51.10
2018-01-14T04:44:29.795Z,44.90
2018-01-14T04:45:29.817Z,46.80
2018-01-14T04:46:29.865Z,48.20
2018-01-14T04:47:29.865Z,46.90
2018-01-14T04:48:29.886Z,49.00
2018-01-14T04:49:29.909Z,44.60
2018-01-14T04:50:29.975Z,49.30
2018-01-14T04:51:29.957Z,49.50
2018-01-14T04:52:29.980Z,53.00
2018-01-14T04:53:30.003Z,46.70
2018-01-14T04:54:30.027Z,50.50
2018-01-14T04:55:30.050Z,49.20
2018-01-14T04:56:30.072Z,45.20
2018-01-14T04:57:30.096Z,47.40
2018-01-14T04:58:30.119Z,45.10
2018-01-14T04:59:30.142Z,47.10
2018-01-14T05:00:30.166Z,52.00
2018-01-14T05:01:30.189Z,48.60
2018-01-14T05:02:30.211Z,46.10
2018-01-14T05:03:30.235Z,45.40
2018-01-14T05:04:30.258Z,47.80
2018-01-14T05:05:30.280Z,46.70
2018-01-14T05:06:30.304Z,47.80
2018-01-14T05:07:30.328Z,54.30
2018-01-14T05:08:30.401Z,44.70
2018-01-14T05:09:30.376Z,45.20
2018-01-14T05:10:30.397Z,43.80
2018-01-14T05:11:30.420Z,42.20
2018-01-14T05:12:30.451Z,48.60
2018-01-14T05:13:30.466Z,51.10
2018-01-14T05:14:30.490Z,48.20
2018-01-14T05:15:30.512Z,43.20
2018-01-14T05:16:30.534Z,48.00
2018-01-14T05:17:30.558Z,51.60
2018-01-14T05:18:30.582Z,48.30
2018-01-14T05:19:30.606Z,45.70
2018-01-14T05:20:30.628Z,48.40
2018-01-14T05:21:30.651Z,45.30
2018-01-14T05:22:30.675Z,49.50
2018-01-14T05:23:30.698Z,49.70
2018-01-14T05:24:30.722Z,48.50
2018-01-14T05:25:30.744Z,50.80
2018-01-14T05:26:30.768Z,47.00
2018-01-14T05:27:30.790Z,49.60
2018-01-14T05:28:30.813Z,47.70
2018-01-14T05:29:30.837Z,50.00
2018-01-14T05:30:30.861Z,49.90
2018-01-14T05:31:30.901Z,43.70
2018-01-14T05:32:30.906Z,48.30
2018-01-14T05:33:30.930Z,48.90
2018-01-14T05:34:30.952Z,48.00
2018-01-14T05:35:30.974Z,49.40
2018-01-14T05:36:30.998Z,50.70
2018-01-14T05:37:31.021Z,48.50
2018-01-14T05:38:31.046Z,50.20
2018-01-14T05:39:31.068Z,51.90
2018-01-14T05:40:31.089Z,51.90
2018-01-14T05:41:31.113Z,51.50
2018-01-14T05:42:31.137Z,56.90
2018-01-14T05:43:31.160Z,52.40
2018-01-14T05:44:31.181Z,46.10
2018-01-14T05:45:31.205Z,49.90
2018-01-14T05:46:31.229Z,44.50
2018-01-14T05:47:31.259Z,46.40
2018-01-14T05:48:31.273Z,48.10
2018-01-14T05:49:31.297Z,45.40
2018-01-14T05:50:31.321Z,47.30
2018-01-14T05:51:31.344Z,50.20
2018-01-14T05:52:31.366Z,45.10
2018-01-14T05:53:31.389Z,45.30
2018-01-14T05:54:31.413Z,43.60
2018-01-14T05:55:31.438Z,44.50
2018-01-14T05:56:31.458Z,41.80
2018-01-14T05:57:31.482Z,47.80
2018-01-14T05:58:31.504Z,50.90
2018-01-14T05:59:31.528Z,46.20
2018-01-14T06:00:31.557Z,43.40
2018-01-14T06:01:31.573Z,45.50
2018-01-14T06:02:31.598Z,43.20
2018-01-14T06:03:31.622Z,41.80
2018-01-14T06:04:31.643Z,42.40
2018-01-14T06:05:31.666Z,41.20
2018-01-14T06:06:31.689Z,47.80
2018-01-14T06:07:31.713Z,45.70
2018-01-14T06:08:31.739Z,46.80
2018-01-14T06:09:31.757Z,51.40
2018-01-14T06:10:31.782Z,54.80
2018-01-14T06:11:31.807Z,50.30
2018-01-14T06:12:31.828Z,49.70
2018-01-14T06:13:31.850Z,55.20
2018-01-14T06:14:31.873Z,48.70
2018-01-14T06:15:31.898Z,51.70
2018-01-14T06:16:31.920Z,50.60
2018-01-14T06:17:31.943Z,52.50
2018-01-14T06:18:31.967Z,50.50
2018-01-14T06:19:31.990Z,48.00
2018-01-14T06:20:32.013Z,53.70
2018-01-14T06:21:32.036Z,57.00
2018-01-14T06:22:32.059Z,49.10
2018-01-14T06:23:32.082Z,43.30
2018-01-14T06:24:32.105Z,56.80
2018-01-14T06:25:32.128Z,58.80
2018-01-14T06:26:32.149Z,46.00
2018-01-14T06:27:32.173Z,50.70
2018-01-14T06:28:32.197Z,45.40
2018-01-14T06:29:32.220Z,44.40
2018-01-14T06:30:32.246Z,49.30
2018-01-14T06:31:32.419Z,53.10
2018-01-14T06:32:32.288Z,52.00
2018-01-14T06:33:32.312Z,48.70
2018-01-14T06:34:32.334Z,53.80
2018-01-14T06:35:32.357Z,47.70
2018-01-14T06:36:32.380Z,52.40
2018-01-14T06:37:32.404Z,48.00
2018-01-14T06:38:32.427Z,51.30
2018-01-14T06:39:32.451Z,46.40
2018-01-14T06:40:32.473Z,54.50
2018-01-14T06:41:32.496Z,52.00
2018-01-14T06:42:32.520Z,48.20
2018-01-14T06:43:32.541Z,49.70
2018-01-14T06:44:32.564Z,56.00
2018-01-14T06:45:32.646Z,50.80
2018-01-14T06:46:32.611Z,49.90
2018-01-14T06:47:32.633Z,55.30
2018-01-14T06:48:32.656Z,58.10
2018-01-14T06:49:32.679Z,49.60
2018-01-14T06:50:32.702Z,50.60
2018-01-14T06:51:32.725Z,52.40
2018-01-14T06:52:32.748Z,49.40
2018-01-14T06:53:32.770Z,49.60
2018-01-14T06:54:32.801Z,49.40
2018-01-14T06:55:32.817Z,45.70
2018-01-14T06:56:32.839Z,49.20
2018-01-14T06:57:32.862Z,39.80
2018-01-14T06:58:32.884Z,46.00
2018-01-14T06:59:32.908Z,58.40
2018-01-14T07:00:32.930Z,49.80
2018-01-14T07:01:32.952Z,45.40
2018-01-14T07:02:32.976Z,47.70
2018-01-14T07:03:33.000Z,44.60
2018-01-14T07:04:33.022Z,47.40
2018-01-14T07:05:33.046Z,51.20
2018-01-14T07:06:33.067Z,46.10
2018-01-14T07:07:33.091Z,50.40
2018-01-14T07:08:33.112Z,49.30
2018-01-14T07:09:33.135Z,44.70
2018-01-14T07:10:33.162Z,42.40
2018-01-14T07:11:33.184Z,46.50
2018-01-14T07:12:33.204Z,45.80
2018-01-14T07:13:33.227Z,42.60
2018-01-14T07:14:33.250Z,52.30
2018-01-14T07:15:33.272Z,49.00
2018-01-14T07:16:33.295Z,48.20
2018-01-14T07:17:33.318Z,50.00
2018-01-14T07:18:33.342Z,42.10
2018-01-14T07:19:33.364Z,48.90
2018-01-14T07:20:33.385Z,47.80
2018-01-14T07:21:33.410Z,51.40
2018-01-14T07:22:33.582Z,45.00
2018-01-14T07:23:33.455Z,48.80
2018-01-14T07:24:33.478Z,53.60
2018-01-14T07:25:33.500Z,47.60
2018-01-14T07:26:33.524Z,46.20
2018-01-14T07:27:33.546Z,45.80
2018-01-14T07:28:33.569Z,48.60
2018-01-14T07:29:33.592Z,48.70
2018-01-14T07:30:33.662Z,46.30
2018-01-14T07:31:33.638Z,50.20
2018-01-14T07:32:33.660Z,45.40
2018-01-14T07:33:33.685Z,54.00
2018-01-14T07:34:33.707Z,54.80
2018-01-14T07:35:33.730Z,44.00
2018-01-14T07:36:33.751Z,48.20
2018-01-14T07:37:33.773Z,49.60
2018-01-14T07:38:33.798Z,46.70
2018-01-14T07:39:33.820Z,46.30
2018-01-14T07:40:33.843Z,50.00
2018-01-14T07:41:33.872Z,53.00
2018-01-14T07:42:33.889Z,51.30
2018-01-14T07:43:33.916Z,47.80
2018-01-14T07:44:33.935Z,41.30
2018-01-14T07:45:33.958Z,45.00
2018-01-14T07:46:33.979Z,50.80
2018-01-14T07:47:34.002Z,49.20
2018-01-14T07:48:34.026Z,49.70
2018-01-14T07:49:34.049Z,50.90
2018-01-14T07:50:34.071Z,41.90
2018-01-14T07:51:34.096Z,39.90
2018-01-14T07:52:34.117Z,35.30
2018-01-14T07:53:34.142Z,41.10
2018-01-14T07:54:34.165Z,39.60
2018-01-14T07:55:34.188Z,34.70
2018-01-14T07:56:34.210Z,34.40
2018-01-14T07:57:34.235Z,42.20
2018-01-14T07:58:34.258Z,37.20
2018-01-14T07:59:34.282Z,38.10
2018-01-14T08:00:34.304Z,36.10
2018-01-14T08:01:34.328Z,33.90
2018-01-14T08:02:34.352Z,36.00
2018-01-14T08:03:34.382Z,43.60
2018-01-14T08:04:34.401Z,35.00
2018-01-14T08:05:34.424Z,35.40
2018-01-14T08:06:34.448Z,35.70
2018-01-14T08:07:34.472Z,39.10
2018-01-14T08:08:34.495Z,35.80
2018-01-14T08:09:34.523Z,38.00
2018-01-14T08:10:34.603Z,37.90
2018-01-14T08:11:34.571Z,44.10
2018-01-14T08:12:34.594Z,34.90
2018-01-14T08:13:34.620Z,38.00
2018-01-14T08:14:34.645Z,35.50
2018-01-14T08:15:34.671Z,38.00
2018-01-14T08:16:34.695Z,39.20
2018-01-14T08:17:34.720Z,39.40
2018-01-14T08:18:34.746Z,44.80
2018-01-14T08:19:34.772Z,53.60
2018-01-14T08:20:34.796Z,53.60
2018-01-14T08:21:34.823Z,41.50
2018-01-14T08:22:34.860Z,37.20
2018-01-14T08:23:34.875Z,40.60
2018-01-14T08:24:34.900Z,39.50
2018-01-14T08:25:34.927Z,37.30
2018-01-14T08:26:34.953Z,37.90
2018-01-14T08:27:34.982Z,36.90
2018-01-14T08:28:35.005Z,42.80
2018-01-14T08:29:35.033Z,44.20
2018-01-14T08:30:35.059Z,46.10
2018-01-14T08:31:35.085Z,46.20
2018-01-14T08:32:35.112Z,41.40
2018-01-14T08:33:35.138Z,43.60
2018-01-14T08:34:35.166Z,40.60
2018-01-14T08:35:35.199Z,40.40
2018-01-14T08:36:35.221Z,40.20
2018-01-14T08:37:35.249Z,38.20
2018-01-14T08:38:35.278Z,36.80
2018-01-14T08:39:35.304Z,35.80
2018-01-14T08:40:35.332Z,39.20
2018-01-14T08:41:35.359Z,43.50
2018-01-14T08:42:35.388Z,39.90
2018-01-14T08:43:35.415Z,35.40
2018-01-14T08:44:35.442Z,37.20
2018-01-14T08:45:35.472Z,36.70
2018-01-14T08:46:35.500Z,35.30
2018-01-14T08:47:35.529Z,34.30
2018-01-14T08:48:35.556Z,31.10
2018-01-14T08:49:35.586Z,32.60
2018-01-14T08:50:35.616Z,29.60
2018-01-14T08:51:35.644Z,33.60
2018-01-14T08:52:35.671Z,36.40
2018-01-14T08:53:35.702Z,34.40
2018-01-14T08:54:35.731Z,38.60
2018-01-14T08:55:35.762Z,36.00
2018-01-14T08:56:35.790Z,52.80
2018-01-14T08:57:35.820Z,140.40
2018-01-14T08:58:35.850Z,81.30
2018-01-14T08:59:35.880Z,51.00
2018-01-14T09:00:35.918Z,46.80
2018-01-14T09:01:35.937Z,39.30
2018-01-14T09:02:35.968Z,40.20
2018-01-14T09:03:35.999Z,56.10
2018-01-14T09:04:36.029Z,59.60
2018-01-14T09:05:36.059Z,46.60
2018-01-14T09:06:36.089Z,43.80
2018-01-14T09:07:36.119Z,46.40
2018-01-14T09:08:36.149Z,40.10
2018-01-14T09:09:36.181Z,40.50
2018-01-14T09:10:36.212Z,37.80
2018-01-14T09:11:36.242Z,42.00
2018-01-14T09:12:36.272Z,40.70
2018-01-14T09:13:36.305Z,37.10
2018-01-14T09:14:36.338Z,39.90
2018-01-14T09:15:36.366Z,41.70
2018-01-14T09:16:36.397Z,38.70
2018-01-14T09:17:36.429Z,41.10
2018-01-14T09:18:36.461Z,42.60
2018-01-14T09:19:36.493Z,37.50
2018-01-14T09:20:36.523Z,36.90
2018-01-14T09:21:36.555Z,38.70
2018-01-14T09:22:36.588Z,40.70
2018-01-14T09:23:36.619Z,35.00
2018-01-14T09:24:36.809Z,36.00
2018-01-14T09:25:36.683Z,38.60
2018-01-14T09:26:36.718Z,41.20
2018-01-14T09:27:36.749Z,36.40
2018-01-14T09:28:36.781Z,33.90
2018-01-14T09:29:36.814Z,33.80
2018-01-14T09:30:36.848Z,36.00
2018-01-14T09:31:36.880Z,35.90
2018-01-14T09:32:36.913Z,38.90
2018-01-14T09:33:36.947Z,38.90
2018-01-14T09:34:36.980Z,35.00
2018-01-14T09:35:37.014Z,39.60
2018-01-14T09:36:37.047Z,38.70
2018-01-14T09:37:37.081Z,36.70
2018-01-14T09:38:37.114Z,41.60
2018-01-14T09:39:37.150Z,39.60
2018-01-14T09:40:37.183Z,37.60
2018-01-14T09:41:37.218Z,41.60
2018-01-14T09:42:37.251Z,38.00
2018-01-14T09:43:37.291Z,40.60
2018-01-14T09:44:37.321Z,44.30
2018-01-14T09:45:37.360Z,40.80
2018-01-14T09:46:37.392Z,39.90
2018-01-14T09:47:37.428Z,38.40
2018-01-14T09:48:37.462Z,39.10
2018-01-14T09:49:37.497Z,38.90
2018-01-14T09:50:37.534Z,37.50
2018-01-14T09:51:37.572Z,45.20
2018-01-14T09:52:37.606Z,39.10
2018-01-14T09:53:37.642Z,38.80
2018-01-14T09:54:37.679Z,39.00
2018-01-14T09:55:37.717Z,40.30
2018-01-14T09:56:37.751Z,37.80
2018-01-14T09:57:37.788Z,35.90
2018-01-14T09:58:37.825Z,39.00
2018-01-14T09:59:37.863Z,37.40
2018-01-14T10:00:37.899Z,38.90
2018-01-14T10:01:37.936Z,39.40
2018-01-14T10:02:37.975Z,41.50
2018-01-14T10:03:38.013Z,42.90
2018-01-14T10:04:38.049Z,38.90
2018-01-14T10:05:38.088Z,37.60
2018-01-14T10:06:38.126Z,34.50
2018-01-14T10:07:38.164Z,33.30
2018-01-14T10:08:38.201Z,38.20
2018-01-14T10:09:38.239Z,34.60
2018-01-14T10:10:38.278Z,36.10
2018-01-14T10:11:38.317Z,37.90
2018-01-14T10:12:38.354Z,34.90
2018-01-14T10:13:38.393Z,37.10
2018-01-14T10:14:38.433Z,34.50
2018-01-14T10:15:38.470Z,38.60
2018-01-14T10:16:38.510Z,38.00
2018-01-14T10:17:38.548Z,32.10
2018-01-14T10:18:38.588Z,34.20
2018-01-14T10:19:38.626Z,38.10
2018-01-14T10:20:38.668Z,35.30
2018-01-14T10:21:38.705Z,31.00
2018-01-14T10:22:38.744Z,35.60
2018-01-14T10:23:38.784Z,35.60
2018-01-14T10:24:38.822Z,33.90
2018-01-14T10:25:38.862Z,37.20
2018-01-14T10:26:38.902Z,32.70
2018-01-14T10:27:38.941Z,35.70
2018-01-14T10:28:38.980Z,36.40
2018-01-14T10:29:39.020Z,34.30
2018-01-14T10:30:39.061Z,36.00
2018-01-14T10:31:39.100Z,35.10
2018-01-14T10:32:39.138Z,31.90
2018-01-14T10:33:39.178Z,37.40
2018-01-14T10:34:39.219Z,32.80
2018-01-14T10:35:39.259Z,33.60
2018-01-14T10:36:39.302Z,32.70
2018-01-14T10:37:39.338Z,33.10
2018-01-14T10:38:39.379Z,34.80
2018-01-14T10:39:39.420Z,35.70
2018-01-14T10:40:39.508Z,35.80
2018-01-14T10:41:39.500Z,36.40
2018-01-14T10:42:39.540Z,35.00
2018-01-14T10:43:39.582Z,36.00
2018-01-14T10:44:39.622Z,34.10
2018-01-14T10:45:39.663Z,32.00
2018-01-14T10:46:39.702Z,32.40
2018-01-14T10:47:39.747Z,34.90
2018-01-14T10:48:39.784Z,41.30
2018-01-14T10:49:39.825Z,35.90
2018-01-14T10:50:39.871Z,34.10
2018-01-14T10:51:39.905Z,39.20
2018-01-14T10:52:39.946Z,37.80
2018-01-14T10:53:39.988Z,36.50
2018-01-14T10:54:40.030Z,32.60
2018-01-14T10:55:40.070Z,33.40
2018-01-14T10:56:40.112Z,30.70
2018-01-14T10:57:40.156Z,34.50
2018-01-14T10:58:40.194Z,33.50
2018-01-14T10:59:40.237Z,33.50
2018-01-14T11:00:40.277Z,34.00
2018-01-14T11:01:40.320Z,37.30
2018-01-14T11:02:40.361Z,33.50
2018-01-14T11:03:40.403Z,32.30
2018-01-14T11:04:40.444Z,36.30
2018-01-14T11:05:40.486Z,30.60
2018-01-14T11:06:40.527Z,34.10
2018-01-14T11:07:40.569Z,32.40
2018-01-14T11:08:40.612Z,32.70
2018-01-14T11:09:40.654Z,36.40
2018-01-14T11:10:40.695Z,31.10
2018-01-14T11:11:40.738Z,32.50
2018-01-14T11:12:40.786Z,36.80
2018-01-14T11:13:40.822Z,33.50
2018-01-14T11:14:40.865Z,39.40
2018-01-14T11:15:40.908Z,35.40
2018-01-14T11:16:41.102Z,35.20
2018-01-14T11:17:40.992Z,32.30
2018-01-14T11:18:41.034Z,33.40
2018-01-14T11:19:41.080Z,32.30
2018-01-14T11:20:41.118Z,31.20
2018-01-14T11:21:41.160Z,30.50
2018-01-14T11:22:41.203Z,33.60
2018-01-14T11:23:41.246Z,31.70
2018-01-14T11:24:41.287Z,31.00
2018-01-14T11:25:41.329Z,29.50
2018-01-14T11:26:41.373Z,31.60
2018-01-14T11:27:41.415Z,35.50
2018-01-14T11:28:41.455Z,37.10
2018-01-14T11:29:41.500Z,32.20
2018-01-14T11:30:41.541Z,32.60
2018-01-14T11:31:41.585Z,31.30
2018-01-14T11:32:41.626Z,33.00
2018-01-14T11:33:41.669Z,31.20
2018-01-14T11:34:41.712Z,31.60
2018-01-14T11:35:41.755Z,31.60
2018-01-14T11:36:41.797Z,32.80
2018-01-14T11:37:41.840Z,29.10
2018-01-14T11:38:41.884Z,32.10
2018-01-14T11:39:41.927Z,32.60
2018-01-14T11:40:41.969Z,30.40
2018-01-14T11:41:42.011Z,31.90
2018-01-14T11:42:42.055Z,32.40
2018-01-14T11:43:42.098Z,34.00
2018-01-14T11:44:42.140Z,29.60
2018-01-14T11:45:42.184Z,33.00
2018-01-14T11:46:42.226Z,32.30
2018-01-14T11:47:42.270Z,32.90
2018-01-14T11:48:42.312Z,30.90
2018-01-14T11:49:42.355Z,33.00
2018-01-14T11:50:42.398Z,33.30
2018-01-14T11:51:42.443Z,35.20
2018-01-14T11:52:42.485Z,34.60
2018-01-14T11:53:42.529Z,30.70
2018-01-14T11:54:42.572Z,30.30
2018-01-14T11:55:42.619Z,31.20
2018-01-14T11:56:42.658Z,31.80
2018-01-14T11:57:42.703Z,31.90
2018-01-14T11:58:42.746Z,34.40
2018-01-14T11:59:42.789Z,31.60
2018-01-14T12:00:42.832Z,32.60
2018-01-14T12:01:42.894Z,34.20
2018-01-14T12:02:42.924Z,31.10
2018-01-14T12:03:42.962Z,30.90
2018-01-14T12:04:43.007Z,29.60
2018-01-14T12:05:43.049Z,32.70
2018-01-14T12:06:43.094Z,34.60
2018-01-14T12:07:43.138Z,29.90
2018-01-14T12:08:43.180Z,32.10
2018-01-14T12:09:43.224Z,31.00
2018-01-14T12:10:43.268Z,32.70
2018-01-14T12:11:43.313Z,35.50
2018-01-14T12:12:43.355Z,30.40
2018-01-14T12:13:43.400Z,33.30
2018-01-14T12:14:43.444Z,34.10
2018-01-14T12:15:43.488Z,32.30
2018-01-14T12:16:43.531Z,30.60
2018-01-14T12:17:43.576Z,31.10
2018-01-14T12:18:43.624Z,34.10
2018-01-14T12:19:43.664Z,29.40
2018-01-14T12:20:43.708Z,31.30
2018-01-14T12:21:43.753Z,33.90
2018-01-14T12:22:43.796Z,35.50
2018-01-14T12:23:43.841Z,29.90
2018-01-14T12:24:43.885Z,33.60
2018-01-14T12:25:43.929Z,33.90
2018-01-14T12:26:43.973Z,35.70
2018-01-14T12:27:44.017Z,33.80
2018-01-14T12:28:44.061Z,36.30
2018-01-14T12:29:44.105Z,33.30
2018-01-14T12:30:44.149Z,34.10
2018-01-14T12:31:44.193Z,34.60
2018-01-14T12:32:44.236Z,34.70
2018-01-14T12:33:44.281Z,34.00
2018-01-14T12:34:44.327Z,36.10
2018-01-14T12:35:44.368Z,33.50
2018-01-14T12:36:44.412Z,33.40
2018-01-14T12:37:44.455Z,33.00
2018-01-14T12:38:44.500Z,35.40
2018-01-14T12:39:44.564Z,34.30
2018-01-14T12:40:44.587Z,33.40
2018-01-14T12:41:44.630Z,33.50
2018-01-14T12:42:44.675Z,31.60
2018-01-14T12:43:44.719Z,38.90
2018-01-14T12:44:44.762Z,37.30
2018-01-14T12:45:44.809Z,35.70
2018-01-14T12:46:44.850Z,34.80
2018-01-14T12:47:44.894Z,33.40
2018-01-14T12:48:44.935Z,34.60
2018-01-14T12:49:44.980Z,37.30
2018-01-14T12:50:45.025Z,38.10
2018-01-14T12:51:45.068Z,31.40
2018-01-14T12:52:45.112Z,34.30